Time;durP1;ratioP1;P1;durP2;ratioP2;P2;SDS_P1;SDS_P2;PMS_P1;PMS_P2;Temp;Humidity;BMP_temperature;BMP_pressure;BME280_temperature;BME280_humidity;BME280_pressure;Samples;Min_cycle;Max_cycle;Signal;HPM_P1;HPM_P2
2023/03/15 00:01:33;;;;;;;4.82;1.55;;;5.00;99.90;;;;;;5033212;28;20501;-64
2023/03/15 00:04:00;;;;;;;5.43;1.30;;;4.90;99.90;;;;;;5033235;28;20072;-64
2023/03/15 00:06:26;;;;;;;4.07;1.60;;;4.90;99.90;;;;;;5033492;28;20065;-64
2023/03/15 00:08:53;;;;;;;5.35;2.05;;;4.80;99.90;;;;;;5035597;28;20045;-64
2023/03/15 00:11:20;;;;;;;3.97;1.75;;;4.80;99.90;;;;;;5036981;28;20069;-64
2023/03/15 00:13:47;;;;;;;5.57;1.75;;;4.70;99.90;;;;;;5036563;28;20045;-64
2023/03/15 00:16:17;;;;;;;3.30;1.58;;;4.70;99.90;;;;;;5036859;28;20099;-64
2023/03/15 00:18:44;;;;;;;5.97;1.55;;;4.60;99.90;;;;;;5036370;28;20045;-64
2023/03/15 00:21:11;;;;;;;5.10;1.55;;;4.70;99.90;;;;;;5036231;28;20088;-64
2023/03/15 00:23:37;;;;;;;5.38;1.63;;;4.70;99.90;;;;;;5036120;28;20096;-64
2023/03/15 00:26:04;;;;;;;4.25;1.67;;;4.60;99.90;;;;;;5036735;28;20492;-64
2023/03/15 00:28:31;;;;;;;5.43;1.88;;;4.60;99.90;;;;;;5036523;28;20117;-64
2023/03/15 00:30:57;;;;;;;4.63;1.83;;;4.60;99.90;;;;;;5036490;28;20088;-64
2023/03/15 00:33:24;;;;;;;6.28;1.65;;;4.70;99.90;;;;;;5036194;28;20477;-64
2023/03/15 00:35:52;;;;;;;4.72;1.70;;;4.70;99.90;;;;;;5036286;28;20080;-64
2023/03/15 00:38:20;;;;;;;6.20;1.75;;;4.70;99.90;;;;;;5035561;28;20056;-64
2023/03/15 00:40:47;;;;;;;6.88;1.50;;;4.80;99.90;;;;;;5035014;28;20037;-64
2023/03/15 00:43:16;;;;;;;6.93;1.65;;;4.80;99.90;;;;;;5035880;28;20052;-64
2023/03/15 00:45:44;;;;;;;3.17;1.60;;;4.70;99.90;;;;;;5036253;28;20033;-64
2023/03/15 00:48:10;;;;;;;4.43;1.90;;;4.70;99.90;;;;;;5036355;28;20038;-64
2023/03/15 00:50:37;;;;;;;7.00;1.67;;;4.60;99.90;;;;;;5035277;28;20448;-64
2023/03/15 00:53:04;;;;;;;6.20;1.90;;;4.60;99.90;;;;;;5035882;28;20049;-64
2023/03/15 00:55:30;;;;;;;5.88;1.85;;;4.60;99.90;;;;;;5035912;28;20041;-64
2023/03/15 00:57:58;;;;;;;5.30;1.80;;;4.50;99.90;;;;;;5034315;28;20049;-64
2023/03/15 01:00:26;;;;;;;6.00;1.90;;;4.50;99.90;;;;;;5034520;28;20064;-64
2023/03/15 01:02:53;;;;;;;7.43;2.17;;;4.40;99.90;;;;;;5035964;28;20038;-64
2023/03/15 01:05:20;;;;;;;6.07;1.92;;;4.40;99.90;;;;;;5035559;28;20033;-64
2023/03/15 01:07:47;;;;;;;4.65;1.85;;;4.30;99.90;;;;;;5034296;28;20045;-64
2023/03/15 01:10:13;;;;;;;7.78;1.90;;;4.30;99.90;;;;;;5034283;28;20447;-63
2023/03/15 01:12:40;;;;;;;8.73;2.13;;;4.20;99.90;;;;;;5034375;28;20484;-63
2023/03/15 01:15:09;;;;;;;6.60;1.73;;;4.10;99.90;;;;;;5034173;28;20049;-63
2023/03/15 01:17:36;;;;;;;5.72;2.00;;;4.10;99.90;;;;;;5034291;28;20467;-63
2023/03/15 01:20:04;;;;;;;7.28;2.03;;;4.10;99.90;;;;;;5034851;28;20400;-64
2023/03/15 01:22:31;;;;;;;4.68;1.85;;;4.00;99.90;;;;;;5033840;28;20072;-63
2023/03/15 01:24:57;;;;;;;5.20;1.75;;;4.00;99.90;;;;;;5034032;28;20076;-63
2023/03/15 01:27:24;;;;;;;5.10;1.95;;;3.90;99.90;;;;;;5035612;28;20046;-64
2023/03/15 01:29:52;;;;;;;7.57;2.13;;;3.90;99.90;;;;;;5034191;28;20073;-63
2023/03/15 01:32:19;;;;;;;6.90;2.20;;;3.90;99.90;;;;;;5034857;28;20412;-63
2023/03/15 01:34:45;;;;;;;8.32;2.38;;;3.90;99.90;;;;;;5034916;28;20041;-63
2023/03/15 01:37:13;;;;;;;5.60;2.00;;;3.80;99.90;;;;;;5035275;28;20127;-63
2023/03/15 01:39:43;;;;;;;8.45;2.22;;;3.80;99.90;;;;;;5033674;28;20388;-63
2023/03/15 01:42:10;;;;;;;5.55;2.10;;;3.80;99.90;;;;;;5034169;28;20048;-63
2023/03/15 01:44:37;;;;;;;11.05;2.55;;;3.70;99.90;;;;;;5034100;28;20079;-64
2023/03/15 01:47:04;;;;;;;5.45;2.20;;;3.70;99.90;;;;;;5034137;28;20042;-63
2023/03/15 01:49:34;;;;;;;4.95;1.88;;;3.60;99.90;;;;;;5033336;28;20439;-63
2023/03/15 01:52:03;;;;;;;5.65;2.33;;;3.60;99.90;;;;;;5033544;28;20041;-63
2023/03/15 01:54:42;;;;;;;6.53;1.85;;;3.60;99.90;;;;;;5034492;28;20436;-63
2023/03/15 01:57:09;;;;;;;9.27;2.33;;;3.50;99.90;;;;;;5033776;28;20067;-63
2023/03/15 01:59:36;;;;;;;5.85;1.98;;;3.50;99.90;;;;;;5033387;28;20520;-63
2023/03/15 02:02:03;;;;;;;9.05;2.30;;;3.50;99.90;;;;;;5033171;28;20050;-63
2023/03/15 02:04:30;;;;;;;7.00;1.80;;;3.50;99.90;;;;;;5033061;28;20045;-63
2023/03/15 02:06:58;;;;;;;7.57;2.35;;;3.50;99.90;;;;;;5033125;28;20046;-63
2023/03/15 02:09:28;;;;;;;6.63;1.85;;;3.50;99.90;;;;;;5033717;28;20080;-63
2023/03/15 02:11:55;;;;;;;8.02;1.83;;;3.40;99.90;;;;;;5033448;28;20049;-63
2023/03/15 02:14:21;;;;;;;7.13;2.22;;;3.40;99.90;;;;;;5033031;28;20041;-63
2023/03/15 02:16:48;;;;;;;9.77;2.25;;;3.40;99.90;;;;;;5034882;28;20056;-63
2023/03/15 02:19:16;;;;;;;6.90;1.83;;;3.40;99.90;;;;;;5032784;28;20084;-63
2023/03/15 02:21:42;;;;;;;6.13;2.13;;;3.30;99.90;;;;;;5034371;28;20057;-63
2023/03/15 02:24:09;;;;;;;7.13;2.53;;;3.30;99.90;;;;;;5032614;28;20095;-63
2023/03/15 02:26:36;;;;;;;6.30;2.10;;;3.30;99.90;;;;;;5032981;28;20408;-63
2023/03/15 02:29:03;;;;;;;6.78;2.53;;;3.30;99.90;;;;;;5034096;28;20083;-63
2023/03/15 02:31:36;;;;;;;7.55;2.40;;;3.30;99.90;;;;;;5032344;28;20048;-63
2023/03/15 02:34:03;;;;;;;7.10;2.25;;;3.20;99.90;;;;;;5032889;28;20369;-63
2023/03/15 02:36:33;;;;;;;10.13;2.83;;;3.20;99.90;;;;;;5033013;28;20140;-63
2023/03/15 02:39:00;;;;;;;7.57;2.42;;;3.20;99.90;;;;;;5032961;28;20047;-63
2023/03/15 02:41:27;;;;;;;6.80;2.10;;;3.20;99.90;;;;;;5034361;28;20041;-63
2023/03/15 02:43:54;;;;;;;6.43;2.47;;;3.10;99.90;;;;;;5033741;28;20104;-63
2023/03/15 02:46:21;;;;;;;7.53;2.67;;;3.10;99.90;;;;;;5032799;28;20037;-63
2023/03/15 02:48:48;;;;;;;5.00;2.17;;;3.10;99.90;;;;;;5032727;28;20530;-63
2023/03/15 02:51:15;;;;;;;11.13;2.60;;;3.10;99.90;;;;;;5032360;28;20037;-63
2023/03/15 02:53:42;;;;;;;7.10;2.60;;;3.10;99.90;;;;;;5032243;28;20140;-63
2023/03/15 02:56:08;;;;;;;5.15;2.50;;;3.10;99.90;;;;;;5032524;28;20044;-63
2023/03/15 02:58:35;;;;;;;7.45;2.38;;;3.00;99.90;;;;;;5033688;28;20423;-63
2023/03/15 03:01:02;;;;;;;8.43;2.40;;;3.00;99.90;;;;;;5033587;28;20037;-63
2023/03/15 03:03:29;;;;;;;11.60;3.22;;;3.00;99.90;;;;;;5032092;28;20041;-63
2023/03/15 03:05:59;;;;;;;10.48;2.40;;;2.90;99.90;;;;;;5032224;28;20439;-63
2023/03/15 03:08:26;;;;;;;8.45;2.88;;;2.90;99.90;;;;;;5033482;28;20046;-63
2023/03/15 03:10:53;;;;;;;7.55;2.92;;;2.90;99.90;;;;;;5032303;28;20404;-63
2023/03/15 03:13:20;;;;;;;6.80;2.58;;;2.80;99.90;;;;;;5032270;28;20045;-63
2023/03/15 03:15:47;;;;;;;6.82;2.70;;;2.80;99.90;;;;;;5033853;28;20505;-63
2023/03/15 03:18:14;;;;;;;6.63;2.60;;;2.80;99.90;;;;;;5033954;28;20041;-63
2023/03/15 03:20:41;;;;;;;6.07;2.65;;;2.80;99.90;;;;;;5032051;28;20515;-63
2023/03/15 03:23:07;;;;;;;7.43;2.50;;;2.80;99.90;;;;;;5033162;28;20116;-63
2023/03/15 03:25:35;;;;;;;7.35;2.40;;;2.80;99.90;;;;;;5033357;28;20531;-63
2023/03/15 03:28:03;;;;;;;7.55;2.58;;;2.80;99.90;;;;;;5032217;28;20046;-63
2023/03/15 03:30:30;;;;;;;7.68;2.67;;;2.80;99.90;;;;;;5015840;28;20046;-63
2023/03/15 03:32:57;;;;;;;11.85;3.60;;;2.70;99.90;;;;;;5031678;28;20076;-63
2023/03/15 03:35:24;;;;;;;6.50;2.65;;;2.70;99.90;;;;;;5032371;28;20053;-63
2023/03/15 03:37:52;;;;;;;6.40;2.80;;;2.70;99.90;;;;;;5031912;28;20049;-63
2023/03/15 03:40:24;;;;;;;5.90;2.42;;;2.70;99.90;;;;;;5032186;28;20049;-63
2023/03/15 03:42:51;;;;;;;6.40;2.42;;;2.70;99.90;;;;;;5034367;28;20499;-63
2023/03/15 03:45:19;;;;;;;7.88;2.75;;;2.60;99.90;;;;;;5035963;28;20041;-63
2023/03/15 03:47:50;;;;;;;7.72;2.83;;;2.50;99.90;;;;;;5036264;28;20534;-63
2023/03/15 03:50:17;;;;;;;7.00;2.85;;;2.50;99.90;;;;;;5036960;28;20088;-63
2023/03/15 03:52:44;;;;;;;8.20;3.15;;;2.50;99.90;;;;;;5035663;28;20037;-63
2023/03/15 03:55:17;;;;;;;8.18;3.10;;;2.50;99.90;;;;;;5035579;28;20526;-63
2023/03/15 03:57:44;;;;;;;8.43;3.08;;;2.50;99.90;;;;;;5036329;28;20084;-63
2023/03/15 04:00:20;;;;;;;9.35;3.20;;;2.40;99.90;;;;;;5035972;28;20128;-63
2023/03/15 04:02:47;;;;;;;9.05;3.35;;;2.40;99.90;;;;;;5035486;28;20445;-63
2023/03/15 04:05:14;;;;;;;7.45;3.28;;;2.40;99.90;;;;;;5035610;28;20508;-63
2023/03/15 04:07:42;;;;;;;8.35;3.53;;;2.40;99.90;;;;;;5035328;28;20496;-63
2023/03/15 04:10:13;;;;;;;8.45;3.30;;;2.40;99.90;;;;;;5035684;28;20100;-63
2023/03/15 04:12:43;;;;;;;7.88;3.15;;;2.30;99.90;;;;;;5035720;28;20477;-63
2023/03/15 04:15:12;;;;;;;5.97;3.47;;;2.30;99.90;;;;;;5035799;28;20049;-63
2023/03/15 04:17:38;;;;;;;12.15;3.85;;;2.30;99.90;;;;;;5035042;28;20073;-62
2023/03/15 04:20:06;;;;;;;8.52;3.58;;;2.30;99.90;;;;;;5035244;28;20140;-64
2023/03/15 04:22:37;;;;;;;6.20;3.40;;;2.20;99.90;;;;;;5035608;28;20127;-64
2023/03/15 04:25:16;;;;;;;7.97;3.70;;;2.20;99.90;;;;;;5036813;28;20432;-62
2023/03/15 04:27:43;;;;;;;7.13;3.42;;;2.20;99.90;;;;;;5036133;28;20033;-62
2023/03/15 04:30:25;;;;;;;6.45;3.55;;;2.20;99.90;;;;;;5035006;28;20506;-63
2023/03/15 04:33:04;;;;;;;7.75;4.18;;;2.20;99.90;;;;;;5036675;28;20080;-62
2023/03/15 04:35:54;;;;;;;8.50;4.13;;;2.20;99.90;;;;;;5036522;28;20100;-63
2023/03/15 04:38:31;;;;;;;8.38;3.95;;;2.20;99.90;;;;;;5036493;28;20107;-62
2023/03/15 04:41:38;;;;;;;9.57;4.07;;;2.10;99.90;;;;;;5035975;28;20046;-63
2023/03/15 04:44:15;;;;;;;11.80;4.70;;;2.00;99.90;;;;;;5036554;28;20045;-63
2023/03/15 04:47:14;;;;;;;9.70;4.10;;;2.00;99.90;;;;;;5035007;28;20049;-63
2023/03/15 04:49:52;;;;;;;8.65;4.07;;;1.90;99.90;;;;;;5034910;28;20400;-63
2023/03/15 04:52:25;;;;;;;7.97;3.80;;;1.90;99.90;;;;;;5036417;28;20095;-63
2023/03/15 04:55:12;;;;;;;9.15;4.28;;;1.90;99.90;;;;;;5034079;28;20045;-63
2023/03/15 04:57:56;;;;;;;9.57;4.20;;;1.90;99.90;;;;;;5034534;28;20041;-63
2023/03/15 05:00:43;;;;;;;8.68;4.47;;;1.90;99.90;;;;;;5035998;28;20049;-62
2023/03/15 05:03:24;;;;;;;7.75;3.95;;;1.90;99.90;;;;;;5034751;28;20532;-62
2023/03/15 05:06:09;;;;;;;8.43;3.88;;;1.90;99.90;;;;;;5035935;28;20132;-63
2023/03/15 05:08:48;;;;;;;9.85;4.72;;;1.80;99.90;;;;;;5035696;28;20053;-63
2023/03/15 05:11:33;;;;;;;9.27;4.38;;;1.80;99.90;;;;;;5034196;28;20045;-63
2023/03/15 05:14:29;;;;;;;9.43;4.05;;;1.80;99.90;;;;;;5035042;28;20492;-63
2023/03/15 05:17:09;;;;;;;9.45;3.97;;;1.70;99.90;;;;;;5034618;28;20512;-63
2023/03/15 05:20:09;;;;;;;6.47;3.80;;;1.60;99.90;;;;;;5034749;28;20093;-63
2023/03/15 05:22:52;;;;;;;11.38;4.13;;;1.60;99.90;;;;;;5035489;28;20049;-63
2023/03/15 05:25:19;;;;;;;10.93;4.50;;;1.60;99.90;;;;;;5033896;28;20037;-62
2023/03/15 05:28:08;;;;;;;9.18;4.85;;;1.50;99.90;;;;;;5034618;28;20048;-63
2023/03/15 05:30:55;;;;;;;11.80;4.80;;;1.50;99.90;;;;;;5035236;28;20140;-62
2023/03/15 05:33:45;;;;;;;10.63;5.07;;;1.50;99.90;;;;;;5035329;28;20061;-63
2023/03/15 05:36:31;;;;;;;10.10;5.60;;;1.50;99.90;;;;;;5035630;28;20393;-63
2023/03/15 05:39:25;;;;;;;10.32;5.70;;;1.50;99.90;;;;;;5033770;28;20056;-63
2023/03/15 05:42:13;;;;;;;10.52;5.50;;;1.50;99.90;;;;;;5034163;28;20068;-63
2023/03/15 05:44:39;;;;;;;10.38;5.40;;;1.50;99.90;;;;;;5035302;28;20099;-63
2023/03/15 05:47:23;;;;;;;10.18;5.30;;;1.40;99.90;;;;;;5033632;28;20041;-64
2023/03/15 05:50:13;;;;;;;12.10;6.32;;;1.40;99.90;;;;;;5034422;28;20133;-63
2023/03/15 05:52:48;;;;;;;10.43;6.25;;;1.30;99.90;;;;;;5034071;28;20132;-63
2023/03/15 05:55:47;;;;;;;11.45;6.00;;;1.30;99.90;;;;;;5033206;28;20085;-63
2023/03/15 05:58:23;;;;;;;10.57;5.55;;;1.30;99.90;;;;;;5033866;28;20106;-63
2023/03/15 06:01:18;;;;;;;11.10;5.47;;;1.20;99.90;;;;;;5033549;28;20041;-63
2023/03/15 06:04:09;;;;;;;10.55;5.60;;;1.10;99.90;;;;;;5033396;28;20046;-63
2023/03/15 06:06:38;;;;;;;10.05;6.30;;;1.10;99.90;;;;;;5032266;28;20489;-63
2023/03/15 06:09:07;;;;;;;16.13;6.53;;;1.10;99.90;;;;;;5033543;28;20033;-63
2023/03/15 06:11:34;;;;;;;11.30;6.47;;;1.10;99.90;;;;;;5033879;28;20042;-63
2023/03/15 06:14:01;;;;;;;10.60;6.50;;;1.10;99.90;;;;;;5033312;28;20425;-63
2023/03/15 06:16:40;;;;;;;11.60;6.13;;;1.10;99.90;;;;;;5034424;28;20045;-63
2023/03/15 06:19:07;;;;;;;9.20;5.97;;;1.10;99.90;;;;;;5033069;28;20419;-63
2023/03/15 06:21:34;;;;;;;11.52;6.70;;;1.20;99.90;;;;;;5033396;28;20145;-63
2023/03/15 06:24:06;;;;;;;10.10;7.32;;;1.20;99.90;;;;;;5033004;28;20049;-63
2023/03/15 06:26:33;;;;;;;11.52;6.07;;;1.20;99.90;;;;;;5017161;28;20045;-63
2023/03/15 06:29:02;;;;;;;10.73;7.00;;;1.20;99.90;;;;;;5032835;28;20056;-63
2023/03/15 06:31:29;;;;;;;12.25;7.03;;;1.20;99.90;;;;;;5034077;28;20045;-63
2023/03/15 06:34:01;;;;;;;11.20;6.68;;;1.20;99.90;;;;;;5032648;28;20589;-63
2023/03/15 06:36:30;;;;;;;10.52;7.15;;;1.20;99.90;;;;;;5033905;28;20548;-63
2023/03/15 06:38:57;;;;;;;13.65;7.35;;;1.20;99.90;;;;;;5033291;28;20042;-63
2023/03/15 06:41:23;;;;;;;10.50;7.40;;;1.20;99.90;;;;;;5032646;28;20436;-63
2023/03/15 06:43:55;;;;;;;11.60;7.55;;;1.20;99.90;;;;;;5032684;28;20073;-63
2023/03/15 06:46:22;;;;;;;16.73;7.82;;;1.20;99.90;;;;;;5033025;28;20484;-63
2023/03/15 06:48:49;;;;;;;12.18;7.93;;;1.20;99.90;;;;;;5033020;28;20099;-64
2023/03/15 06:51:17;;;;;;;12.02;8.35;;;1.20;99.90;;;;;;5032614;28;20059;-63
2023/03/15 06:53:43;;;;;;;14.15;8.95;;;1.30;99.90;;;;;;5015986;28;20046;-63
2023/03/15 06:56:10;;;;;;;12.65;8.88;;;1.30;99.90;;;;;;5032708;28;20380;-63
2023/03/15 06:58:37;;;;;;;13.20;9.10;;;1.30;99.90;;;;;;5032533;28;20049;-63
2023/03/15 07:01:04;;;;;;;12.35;8.68;;;1.30;99.90;;;;;;5033910;28;20033;-63
2023/03/15 07:03:31;;;;;;;15.95;8.18;;;1.40;99.90;;;;;;5033846;28;20480;-63
2023/03/15 07:05:57;;;;;;;12.00;8.23;;;1.40;99.90;;;;;;5034018;28;20095;-63
2023/03/15 07:08:24;;;;;;;12.73;8.48;;;1.40;99.90;;;;;;5033370;28;20041;-63
2023/03/15 07:10:51;;;;;;;14.27;9.18;;;1.50;99.90;;;;;;5033602;28;20041;-63
2023/03/15 07:13:18;;;;;;;18.05;8.70;;;1.50;99.90;;;;;;5033465;28;20037;-63
2023/03/15 07:15:46;;;;;;;10.95;7.70;;;1.60;99.90;;;;;;5033360;28;20045;-63
2023/03/15 07:18:13;;;;;;;13.27;7.82;;;1.60;99.90;;;;;;5033901;28;20033;-63
2023/03/15 07:20:40;;;;;;;12.52;8.60;;;1.70;99.90;;;;;;5032924;28;20050;-63
2023/03/15 07:23:07;;;;;;;12.75;8.18;;;1.70;99.90;;;;;;5033347;28;20077;-63
2023/03/15 07:25:34;;;;;;;12.07;8.35;;;1.80;99.90;;;;;;5033251;28;20038;-64
2023/03/15 07:28:17;;;;;;;15.02;8.55;;;1.80;99.90;;;;;;5033327;28;20500;-63
2023/03/15 07:30:44;;;;;;;14.52;8.90;;;1.80;99.90;;;;;;5033737;28;20555;-63
2023/03/15 07:33:11;;;;;;;16.08;9.45;;;1.90;99.90;;;;;;5033276;28;20091;-63
2023/03/15 07:35:38;;;;;;;13.40;9.38;;;1.90;99.90;;;;;;5033158;28;20037;-63
2023/03/15 07:38:04;;;;;;;15.73;9.07;;;2.00;99.90;;;;;;5033230;28;20120;-63
2023/03/15 07:40:31;;;;;;;12.32;8.25;;;2.10;99.90;;;;;;5033396;28;20559;-63
2023/03/15 07:42:58;;;;;;;15.85;9.40;;;2.10;99.90;;;;;;5033249;28;20041;-63
2023/03/15 07:45:25;;;;;;;15.45;9.35;;;2.20;99.90;;;;;;5033144;28;20038;-63
2023/03/15 07:47:52;;;;;;;12.68;8.55;;;2.30;99.90;;;;;;5031961;28;20045;-63
2023/03/15 07:50:22;;;;;;;12.75;8.50;;;2.40;99.90;;;;;;5033330;28;20045;-63
2023/03/15 07:52:48;;;;;;;13.27;9.48;;;2.40;99.90;;;;;;5033633;28;20500;-63
2023/03/15 07:55:15;;;;;;;14.82;9.30;;;2.50;99.90;;;;;;5032069;28;20045;-63
2023/03/15 07:57:42;;;;;;;13.95;8.70;;;2.60;99.90;;;;;;5033354;28;20044;-63
2023/03/15 08:00:10;;;;;;;12.93;8.40;;;2.70;99.90;;;;;;5033438;28;20480;-63
2023/03/15 08:02:40;;;;;;;13.07;8.30;;;2.80;99.90;;;;;;5032876;28;20513;-63
2023/03/15 08:05:06;;;;;;;12.82;8.40;;;2.90;99.90;;;;;;5033062;28;20041;-63
2023/03/15 08:07:34;;;;;;;18.58;14.02;;;3.00;99.90;;;;;;5031539;28;20083;-63
2023/03/15 08:10:01;;;;;;;10.93;8.43;;;3.10;99.90;;;;;;5033140;28;20083;-63
2023/03/15 08:12:29;;;;;;;17.00;9.18;;;3.20;99.90;;;;;;5033418;28;20072;-63
2023/03/15 08:14:56;;;;;;;15.15;8.00;;;3.30;99.90;;;;;;5033524;28;20401;-63
2023/03/15 08:17:23;;;;;;;12.73;7.20;;;3.50;99.90;;;;;;5033210;28;20049;-63
2023/03/15 08:19:50;;;;;;;11.65;7.70;;;3.60;99.90;;;;;;5033333;28;20099;-62
2023/03/15 08:22:17;;;;;;;10.95;7.22;;;3.70;99.90;;;;;;5032523;28;20050;-63
2023/03/15 08:24:44;;;;;;;10.82;5.57;;;3.80;99.90;;;;;;5031756;28;20050;-63
2023/03/15 08:27:11;;;;;;;8.48;6.00;;;3.90;99.90;;;;;;5032231;28;20038;-63
2023/03/15 08:29:38;;;;;;;9.20;5.38;;;4.00;99.90;;;;;;5034535;28;20037;-63
2023/03/15 08:32:04;;;;;;;8.88;5.18;;;4.10;99.90;;;;;;5036614;28;20042;-63
2023/03/15 08:34:31;;;;;;;10.18;4.72;;;4.10;99.90;;;;;;5036193;28;20073;-63
2023/03/15 08:36:58;;;;;;;7.18;5.13;;;4.20;99.90;;;;;;5035012;28;20047;-63
2023/03/15 08:39:25;;;;;;;7.85;4.35;;;4.20;99.90;;;;;;5036671;28;20516;-63
2023/03/15 08:41:51;;;;;;;7.53;4.35;;;4.30;99.90;;;;;;5036031;28;20091;-63
2023/03/15 08:44:18;;;;;;;8.82;4.63;;;4.30;99.90;;;;;;5035932;28;20045;-63
2023/03/15 08:46:45;;;;;;;8.60;4.40;;;4.40;99.90;;;;;;5036807;28;20069;-63
2023/03/15 08:49:11;;;;;;;6.25;3.70;;;4.50;99.90;;;;;;5036007;28;20047;-63
2023/03/15 08:51:38;;;;;;;8.02;4.10;;;4.50;99.90;;;;;;5036129;28;20045;-63
2023/03/15 08:54:06;;;;;;;8.07;3.60;;;4.60;99.90;;;;;;5035609;28;20037;-63
2023/03/15 08:56:33;;;;;;;5.50;3.53;;;4.60;99.90;;;;;;5036020;28;20046;-63
2023/03/15 08:58:59;;;;;;;6.45;3.50;;;4.60;99.90;;;;;;5035851;28;20041;-63
2023/03/15 09:01:29;;;;;;;5.55;3.25;;;4.70;99.90;;;;;;5036309;28;20081;-63
2023/03/15 09:03:55;;;;;;;7.20;3.60;;;4.80;99.90;;;;;;5035880;28;20048;-63
2023/03/15 09:06:22;;;;;;;6.80;4.30;;;4.80;99.90;;;;;;5035977;28;20041;-64
2023/03/15 09:08:49;;;;;;;7.03;3.60;;;4.90;99.90;;;;;;5036321;28;20048;-64
2023/03/15 09:11:16;;;;;;;6.13;3.45;;;4.90;99.90;;;;;;5034904;28;20041;-64
2023/03/15 09:13:43;;;;;;;6.18;3.30;;;5.00;99.90;;;;;;5035416;28;20501;-64
2023/03/15 09:16:09;;;;;;;6.03;3.50;;;5.00;99.90;;;;;;5035568;28;20045;-63
2023/03/15 09:18:36;;;;;;;5.38;3.33;;;5.10;99.90;;;;;;5035600;28;20084;-63
2023/03/15 09:21:03;;;;;;;6.55;3.78;;;5.20;99.90;;;;;;5035408;28;20053;-63
2023/03/15 09:23:30;;;;;;;4.32;3.00;;;5.30;99.90;;;;;;5035913;28;20057;-63
2023/03/15 09:25:56;;;;;;;9.02;3.05;;;5.40;99.90;;;;;;5035586;28;20037;-63
2023/03/15 09:28:24;;;;;;;5.47;2.60;;;5.50;99.90;;;;;;5035324;28;20046;-63
2023/03/15 09:30:51;;;;;;;5.90;2.30;;;5.50;99.90;;;;;;5035160;28;20038;-63
2023/03/15 09:33:18;;;;;;;3.95;1.63;;;5.60;99.90;;;;;;5035061;28;20127;-63
2023/03/15 09:35:44;;;;;;;6.97;1.80;;;5.70;99.90;;;;;;5035509;28;20051;-64
2023/03/15 09:38:11;;;;;;;7.38;1.85;;;5.80;99.90;;;;;;5035533;28;20052;-63
2023/03/15 09:40:38;;;;;;;5.63;1.73;;;5.90;99.90;;;;;;5035399;28;20495;-63
2023/03/15 09:43:04;;;;;;;4.55;1.92;;;5.90;99.90;;;;;;5035165;28;20481;-63
2023/03/15 09:45:31;;;;;;;5.18;1.95;;;6.00;99.90;;;;;;5035004;28;20096;-63
2023/03/15 09:47:58;;;;;;;4.97;1.90;;;6.10;99.90;;;;;;5035356;28;20042;-63
2023/03/15 09:50:25;;;;;;;7.72;2.08;;;6.10;99.90;;;;;;5035489;28;20041;-64
2023/03/15 09:52:51;;;;;;;4.40;1.98;;;6.20;99.90;;;;;;5034814;28;20053;-64
2023/03/15 09:55:18;;;;;;;4.05;2.10;;;6.30;99.90;;;;;;5033536;28;20049;-63
2023/03/15 09:57:45;;;;;;;5.38;2.40;;;6.30;99.90;;;;;;5035085;28;20535;-63
2023/03/15 10:00:12;;;;;;;8.88;2.50;;;6.40;99.90;;;;;;5034822;28;20124;-64
2023/03/15 10:02:39;;;;;;;5.75;2.05;;;6.50;99.90;;;;;;5034530;28;20130;-63
2023/03/15 10:05:05;;;;;;;5.05;1.95;;;6.60;99.90;;;;;;5035205;28;20369;-64
2023/03/15 10:07:32;;;;;;;4.40;1.70;;;6.60;99.90;;;;;;5034957;28;20044;-64
2023/03/15 10:10:00;;;;;;;6.65;2.08;;;6.70;99.90;;;;;;5034756;28;20041;-63
2023/03/15 10:12:27;;;;;;;5.65;1.80;;;6.70;99.90;;;;;;5034516;28;20052;-64
2023/03/15 10:14:53;;;;;;;5.95;2.00;;;6.90;99.90;;;;;;5034400;28;20049;-63
2023/03/15 10:17:20;;;;;;;3.70;1.63;;;6.90;99.90;;;;;;5034482;28;20473;-63
2023/03/15 10:19:47;;;;;;;5.18;1.30;;;7.00;99.90;;;;;;5034822;28;20049;-63
2023/03/15 10:22:14;;;;;;;4.50;1.60;;;7.10;99.90;;;;;;5034348;28;20058;-63
2023/03/15 10:24:41;;;;;;;9.27;2.33;;;7.20;99.90;;;;;;5034302;28;20056;-64
2023/03/15 10:27:07;;;;;;;5.07;1.70;;;7.30;99.90;;;;;;5034229;28;20045;-64
2023/03/15 10:29:34;;;;;;;4.63;1.63;;;7.30;99.90;;;;;;5034512;28;20043;-63
2023/03/15 10:32:01;;;;;;;3.25;1.23;;;7.40;99.90;;;;;;5034517;28;20052;-64
2023/03/15 10:34:27;;;;;;;10.60;1.42;;;7.40;99.90;;;;;;5034125;28;20045;-63
2023/03/15 10:36:56;;;;;;;5.90;1.20;;;7.60;99.90;;;;;;5034317;28;20561;-64
2023/03/15 10:39:23;;;;;;;5.10;1.40;;;7.60;99.90;;;;;;5032735;28;20041;-64
2023/03/15 10:41:50;;;;;;;4.10;0.90;;;7.70;99.90;;;;;;5034215;28;20222;-64
2023/03/15 10:44:17;;;;;;;5.10;1.40;;;7.80;99.90;;;;;;5034468;28;20049;-63
2023/03/15 10:46:43;;;;;;;6.38;1.52;;;7.90;99.90;;;;;;5033165;28;20384;-64
2023/03/15 10:49:11;;;;;;;12.05;2.42;;;7.90;99.90;;;;;;5034420;28;20076;-64
2023/03/15 10:51:37;;;;;;;5.88;1.83;;;8.00;99.90;;;;;;5033443;28;20392;-64
2023/03/15 10:54:05;;;;;;;6.68;2.53;;;8.00;99.90;;;;;;5033674;28;20038;-64
2023/03/15 10:56:32;;;;;;;7.20;2.50;;;8.10;99.90;;;;;;5033904;28;20073;-63
2023/03/15 10:59:00;;;;;;;8.13;2.10;;;8.10;99.90;;;;;;5033828;28;20109;-64
2023/03/15 11:01:38;;;;;;;5.20;2.10;;;8.10;99.90;;;;;;5033610;28;20056;-64
2023/03/15 11:04:05;;;;;;;5.32;2.00;;;8.20;99.90;;;;;;5033775;28;20052;-63
2023/03/15 11:06:32;;;;;;;10.68;2.25;;;8.20;99.90;;;;;;5033415;28;20465;-64
2023/03/15 11:08:59;;;;;;;6.28;2.28;;;8.20;99.90;;;;;;5033678;28;20072;-64
2023/03/15 11:11:26;;;;;;;3.88;2.00;;;8.30;99.90;;;;;;5034076;28;20056;-64
2023/03/15 11:13:53;;;;;;;6.05;2.15;;;8.40;99.90;;;;;;5033903;28;20084;-64
2023/03/15 11:16:20;;;;;;;5.45;1.90;;;8.40;99.90;;;;;;5034206;28;20465;-64
2023/03/15 11:18:46;;;;;;;6.93;1.80;;;8.50;99.90;;;;;;5033519;28;20100;-64
2023/03/15 11:21:13;;;;;;;3.58;1.48;;;8.50;99.90;;;;;;5033644;28;20489;-64
2023/03/15 11:23:40;;;;;;;5.30;1.90;;;8.60;99.90;;;;;;5033242;28;20045;-64
2023/03/15 11:26:07;;;;;;;3.92;1.70;;;8.70;99.90;;;;;;5032348;28;20061;-64
2023/03/15 11:28:35;;;;;;;5.10;1.60;;;8.80;99.90;;;;;;5033374;28;20397;-64
2023/03/15 11:31:03;;;;;;;4.97;1.42;;;8.80;99.90;;;;;;5031829;28;20037;-64
2023/03/15 11:33:32;;;;;;;44.67;4.60;;;8.90;99.90;;;;;;5033161;28;20037;-64
2023/03/15 11:35:59;;;;;;;7.07;2.17;;;8.90;99.90;;;;;;5033064;28;20045;-64
2023/03/15 11:38:26;;;;;;;5.97;2.70;;;9.00;99.90;;;;;;5033222;28;20041;-64
2023/03/15 11:40:53;;;;;;;4.05;1.35;;;9.10;99.90;;;;;;5033673;28;20096;-64
2023/03/15 11:43:19;;;;;;;4.90;0.93;;;9.10;99.90;;;;;;5032971;28;20076;-64
2023/03/15 11:45:46;;;;;;;3.03;0.93;;;9.20;99.90;;;;;;5033442;28;20042;-64
2023/03/15 11:48:45;;;;;;;3.95;0.93;;;9.20;99.90;;;;;;5032713;28;20041;-64
2023/03/15 11:51:12;;;;;;;3.47;1.02;;;9.20;99.90;;;;;;5033046;28;20065;-64
2023/03/15 11:53:39;;;;;;;5.78;1.15;;;9.20;99.90;;;;;;5033364;28;20034;-64
2023/03/15 11:56:06;;;;;;;3.88;1.10;;;9.30;99.90;;;;;;5033140;28;20052;-65
2023/03/15 11:58:33;;;;;;;3.38;1.10;;;9.30;99.90;;;;;;5033454;28;20096;-64
2023/03/15 12:01:00;;;;;;;4.85;1.65;;;9.30;99.90;;;;;;5033029;28;20041;-64
2023/03/15 12:03:27;;;;;;;3.80;1.40;;;9.30;99.90;;;;;;5035078;28;20044;-64
2023/03/15 12:05:54;;;;;;;3.47;1.13;;;9.40;99.90;;;;;;5036877;28;20046;-64
2023/03/15 12:08:21;;;;;;;2.97;1.13;;;9.50;99.90;;;;;;5037162;28;20088;-64
2023/03/15 12:10:49;;;;;;;4.38;1.30;;;9.50;99.90;;;;;;5036985;28;20212;-64
2023/03/15 12:13:16;;;;;;;3.75;1.40;;;9.50;99.90;;;;;;5036552;28;20469;-64
2023/03/15 12:15:43;;;;;;;3.25;1.13;;;9.60;99.90;;;;;;5036881;28;20076;-64
2023/03/15 12:18:10;;;;;;;2.85;1.17;;;9.60;99.90;;;;;;5036794;28;20041;-64
2023/03/15 12:20:36;;;;;;;2.10;0.90;;;9.60;99.90;;;;;;5035148;28;20339;-64
2023/03/15 12:23:03;;;;;;;3.90;0.88;;;9.60;99.90;;;;;;5036361;28;20100;-64
2023/03/15 12:25:30;;;;;;;8.18;1.55;;;9.60;99.90;;;;;;5036495;28;20141;-65
2023/03/15 12:27:59;;;;;;;4.32;1.10;;;9.70;99.90;;;;;;5037167;28;20041;-64
2023/03/15 12:30:26;;;;;;;3.97;1.17;;;9.80;99.90;;;;;;5036296;28;20061;-64
2023/03/15 12:32:53;;;;;;;4.35;1.10;;;9.80;99.40;;;;;;5036706;28;20044;-64
2023/03/15 12:35:20;;;;;;;8.15;1.20;;;9.80;99.90;;;;;;5036713;28;20060;-64
2023/03/15 12:37:46;;;;;;;4.30;1.27;;;9.80;99.90;;;;;;5036448;28;20111;-64
2023/03/15 12:40:13;;;;;;;3.10;1.23;;;9.80;99.80;;;;;;5036174;28;20044;-65
2023/03/15 12:42:40;;;;;;;4.90;1.10;;;9.80;99.90;;;;;;5036071;28;20040;-64
2023/03/15 12:45:07;;;;;;;4.47;1.10;;;9.80;99.90;;;;;;5036383;28;20488;-64
2023/03/15 12:47:33;;;;;;;3.35;1.08;;;9.90;99.90;;;;;;5035834;28;20077;-64
2023/03/15 12:50:00;;;;;;;2.65;1.00;;;10.00;99.90;;;;;;5036194;28;20358;-64
2023/03/15 12:52:27;;;;;;;5.70;1.40;;;10.00;99.90;;;;;;5035976;28;20059;-64
2023/03/15 12:54:54;;;;;;;6.35;1.73;;;10.10;99.90;;;;;;5035981;28;20049;-64
2023/03/15 12:57:21;;;;;;;3.83;1.13;;;10.10;99.90;;;;;;5035957;28;20045;-64
2023/03/15 12:59:48;;;;;;;4.90;1.10;;;10.10;99.90;;;;;;5036061;28;20037;-64
2023/03/15 13:02:14;;;;;;;7.00;1.88;;;10.10;99.90;;;;;;5035968;28;20116;-64
2023/03/15 13:04:41;;;;;;;5.22;1.33;;;10.10;99.90;;;;;;5036134;28;20053;-64